Ozone Park, New York
Current Conditions -  °F | °C
As of 2:51 AM on Sunday 26 Oct 2014 (Local Time) from KJFK Reporting Station
Broken Clouds Broken Clouds  
Wind Chill: 59°   Ceiling: 10000
Heat Index: 59°   Visibility: 10mi
Dew Point: 48°   Wind: 7mph
Humidity: 67%   Direction: 270°W
Pressure: 29.57"   Gusts: NA
Location:  40.68°N, 73.84°W
Report Text: KJFK 260651Z 27006KT 10SM FEW055 BKN100 15/09 A2957 RMK AO2 SLP012 T01500089
Loading
Personal Weather Stations






























Interactive Weather Map
Tropical Storm Tracking
New forecast layout! Learn more

10-Day Weather Forecast

Advertisements
Track Severe Weather on mobile